Time;durP1;ratioP1;P1;durP2;ratioP2;P2;SDS_P1;SDS_P2;PMS_P1;PMS_P2;Temp;Humidity;BMP_temperature;BMP_pressure;BME280_temperature;BME280_humidity;BME280_pressure;Samples;Min_cycle;Max_cycle;Signal;HPM_P1;HPM_P2
2023/03/07 00:01:32;;;;;;;18.00;8.35;;;;;;;2.86;71.71;96913.75;5038604;28;20539;-82
2023/03/07 00:03:59;;;;;;;15.52;8.98;;;;;;;2.98;71.39;96910.69;5037526;28;20033;-82
2023/03/07 00:06:25;;;;;;;18.65;8.50;;;;;;;3.00;71.31;96919.09;5036398;28;20396;-82
2023/03/07 00:08:53;;;;;;;16.55;8.52;;;;;;;2.97;71.47;96911.69;5037148;28;20041;-82
2023/03/07 00:11:19;;;;;;;17.98;8.88;;;;;;;3.05;71.59;96903.81;5037427;28;20051;-83
2023/03/07 00:13:45;;;;;;;18.15;9.20;;;;;;;3.10;71.52;96904.88;5035634;28;20393;-82
2023/03/07 00:16:14;;;;;;;18.98;9.32;;;;;;;3.15;71.59;96912.91;5036422;28;20701;-82
2023/03/07 00:18:41;;;;;;;16.35;8.27;;;;;;;3.14;71.77;96910.50;5037361;28;20052;-82
2023/03/07 00:21:10;;;;;;;18.33;9.23;;;;;;;3.15;71.83;96912.13;5034643;28;20033;-82
2023/03/07 00:23:39;;;;;;;17.23;8.38;;;;;;;3.10;71.70;96904.06;5036780;28;20664;-82
2023/03/07 00:26:13;;;;;;;18.55;9.30;;;;;;;3.07;72.23;96904.44;5039645;28;20040;-82
2023/03/07 00:28:39;;;;;;;15.95;7.50;;;;;;;3.08;72.50;96899.09;5039236;28;20594;-82
2023/03/07 00:31:08;;;;;;;17.00;9.30;;;;;;;3.13;72.89;96901.13;5038556;28;20041;-82
2023/03/07 00:33:34;;;;;;;18.55;9.00;;;;;;;3.11;72.97;96887.53;5041570;28;20043;-82
2023/03/07 00:36:18;;;;;;;16.88;9.10;;;;;;;2.95;73.34;96886.78;5042329;28;20463;-82
2023/03/07 00:38:44;;;;;;;18.45;9.43;;;;;;;3.04;73.76;96891.84;5043110;28;20560;-82
2023/03/07 00:41:19;;;;;;;18.80;9.93;;;;;;;3.02;74.38;96889.44;5042859;28;20440;-82
2023/03/07 00:43:45;;;;;;;17.35;9.13;;;;;;;3.07;74.05;96892.31;5041439;28;20393;-82
2023/03/07 00:46:12;;;;;;;18.73;9.70;;;;;;;3.05;74.23;96875.31;5039498;28;20051;-82
2023/03/07 00:48:39;;;;;;;20.50;9.80;;;;;;;3.08;73.88;96880.16;5041136;28;20037;-82
2023/03/07 00:51:08;;;;;;;18.83;9.57;;;;;;;2.95;74.57;96879.00;5040728;28;20049;-82
2023/03/07 00:53:35;;;;;;;20.30;10.30;;;;;;;2.95;74.66;96860.88;5039854;28;20037;-82
2023/03/07 00:56:11;;;;;;;20.35;9.80;;;;;;;3.06;74.74;96867.38;5040226;28;20551;-82
2023/03/07 00:58:39;;;;;;;17.05;8.65;;;;;;;2.96;74.71;96861.69;5040651;28;20041;-82
2023/03/07 01:01:08;;;;;;;23.13;10.85;;;;;;;2.98;75.08;96853.72;5039124;28;20088;-82
2023/03/07 01:03:35;;;;;;;22.40;10.90;;;;;;;3.08;74.96;96856.84;5039996;28;20032;-82
2023/03/07 01:06:07;;;;;;;17.20;9.15;;;;;;;3.10;74.77;96852.25;5038841;28;20065;-82
2023/03/07 01:08:33;;;;;;;19.60;10.35;;;;;;;2.99;74.82;96844.97;5041434;28;20399;-82
2023/03/07 01:11:02;;;;;;;20.48;9.27;;;;;;;3.06;75.06;96838.06;5039037;28;20036;-82
2023/03/07 01:13:28;;;;;;;17.00;8.90;;;;;;;3.03;74.60;96841.03;5037857;28;20041;-83
2023/03/07 01:15:54;;;;;;;20.60;10.05;;;;;;;3.20;74.75;96842.41;5039209;28;20056;-82
2023/03/07 01:18:20;;;;;;;19.25;9.93;;;;;;;3.16;74.04;96823.03;5039900;28;20068;-82
2023/03/07 01:20:45;;;;;;;19.77;9.77;;;;;;;3.30;73.87;96836.91;5040300;28;20354;-82
2023/03/07 01:23:11;;;;;;;17.25;9.25;;;;;;;3.31;73.52;96833.38;5043861;28;20489;-82
2023/03/07 01:25:42;;;;;;;21.17;10.48;;;;;;;3.29;73.71;96828.34;5042624;28;20041;-82
2023/03/07 01:28:11;;;;;;;;;;;;;;;3.38;73.42;96824.66;5042403;28;20033;-82
2023/03/07 01:30:36;;;;;;;19.30;8.95;;;;;;;3.37;73.27;96835.22;5038791;28;19913;-81
2023/03/07 01:33:02;;;;;;;18.15;9.30;;;;;;;3.21;72.78;96820.69;5040798;28;20071;-82
2023/03/07 01:35:28;;;;;;;17.38;9.00;;;;;;;3.26;73.36;96823.53;5043620;28;20468;-81
2023/03/07 01:37:54;;;;;;;20.42;9.93;;;;;;;3.25;73.30;96823.75;5042165;28;20116;-82
2023/03/07 01:40:22;;;;;;;16.75;9.20;;;;;;;3.20;73.00;96819.09;5041676;28;20380;-81
2023/03/07 01:42:48;;;;;;;18.58;9.32;;;;;;;3.27;72.87;96812.19;5041751;28;20037;-82
2023/03/07 01:45:13;;;;;;;18.63;9.40;;;;;;;3.35;72.97;96806.88;5039467;28;20025;-82
2023/03/07 01:47:42;;;;;;;18.02;8.93;;;;;;;3.30;72.90;96801.47;5040016;28;20045;-82
2023/03/07 01:50:13;;;;;;;20.27;10.70;;;;;;;3.22;72.90;96801.56;5039732;28;20083;-82
2023/03/07 01:52:44;;;;;;;18.35;10.02;;;;;;;3.32;73.01;96802.06;5038755;28;20083;-82
2023/03/07 01:55:18;;;;;;;17.27;9.02;;;;;;;3.27;72.69;96804.41;5038019;28;20679;-81
2023/03/07 01:57:47;;;;;;;16.52;8.68;;;;;;;3.23;73.04;96792.81;5039932;28;20476;-82
2023/03/07 02:00:24;;;;;;;18.23;9.95;;;;;;;3.32;72.80;96794.31;5035821;28;20489;-82
2023/03/07 02:03:05;;;;;;;19.40;10.38;;;;;;;3.20;72.58;96785.41;5039018;28;20037;-81
2023/03/07 02:05:39;;;;;;;19.30;9.98;;;;;;;3.21;73.17;96792.19;5038284;28;20629;-82
2023/03/07 02:08:10;;;;;;;17.58;8.93;;;;;;;3.19;73.02;96796.78;5038245;28;20117;-82
2023/03/07 02:10:37;;;;;;;20.63;9.77;;;;;;;3.23;73.10;96779.84;5038349;28;20029;-81
2023/03/07 02:13:03;;;;;;;18.10;9.05;;;;;;;3.29;73.12;96784.28;5038401;28;20049;-81
2023/03/07 02:15:29;;;;;;;19.85;9.30;;;;;;;3.33;72.41;96790.72;5025139;28;20088;-82
2023/03/07 02:17:57;;;;;;;17.52;9.50;;;;;;;3.28;72.52;96782.69;5034500;28;20422;-82
2023/03/07 02:20:58;;;;;;;17.10;8.40;;;;;;;3.23;72.53;96785.03;5039258;28;20045;-82
2023/03/07 02:23:55;;;;;;;16.50;7.88;;;;;;;3.08;72.87;96786.88;5042884;28;20338;-81
2023/03/07 02:26:29;;;;;;;17.63;8.80;;;;;;;3.17;72.85;96780.59;5074556;28;20095;-82
2023/03/07 02:28:57;;;;;;;19.88;9.35;;;;;;;3.15;72.73;96782.56;5041549;28;20041;-82
2023/03/07 02:31:24;;;;;;;19.98;8.77;;;;;;;3.06;72.71;96783.66;5041161;28;20033;-82
2023/03/07 02:33:49;;;;;;;16.40;8.45;;;;;;;2.88;72.89;96777.13;5041489;28;20035;-81
2023/03/07 02:36:29;;;;;;;16.10;8.65;;;;;;;2.88;73.88;96782.31;5041552;28;20033;-81
2023/03/07 02:38:56;;;;;;;17.55;10.38;;;;;;;2.90;73.75;96782.94;5038289;28;20475;-82
2023/03/07 02:41:29;;;;;;;13.95;7.55;;;;;;;2.93;73.05;96779.16;5038924;28;20497;-83
2023/03/07 02:43:54;;;;;;;19.88;9.93;;;;;;;2.88;72.46;96787.50;5040412;28;20041;-82
2023/03/07 02:46:20;;;;;;;16.75;8.52;;;;;;;2.84;72.75;96786.25;5037769;28;20044;-82
2023/03/07 02:48:46;;;;;;;18.30;8.70;;;;;;;2.79;72.86;96785.97;5040531;28;20040;-81
2023/03/07 02:51:12;;;;;;;10.10;6.45;;;;;;;2.72;73.42;96787.69;5039219;28;20068;-81
2023/03/07 02:53:38;;;;;;;27.10;12.43;;;;;;;2.60;73.82;96778.81;5038299;28;20036;-82
2023/03/07 02:56:05;;;;;;;19.73;11.05;;;;;;;2.55;74.55;96788.88;5039932;28;20045;-82
2023/03/07 02:58:30;;;;;;;21.80;11.73;;;;;;;2.48;75.34;96785.44;5038577;28;20036;-82
2023/03/07 03:00:56;;;;;;;18.10;11.88;;;;;;;2.37;75.70;96790.06;5038538;28;20045;-82
2023/03/07 03:03:21;;;;;;;21.10;10.95;;;;;;;2.39;76.54;96782.91;5037617;28;20033;-82
2023/03/07 03:05:47;;;;;;;23.77;10.57;;;;;;;2.35;77.17;96776.50;5038010;28;20087;-82
2023/03/07 03:08:12;;;;;;;21.50;10.40;;;;;;;2.38;77.81;96783.09;5037550;28;20041;-82
2023/03/07 03:10:38;;;;;;;21.20;11.82;;;;;;;2.34;78.10;96774.91;5035481;28;20037;-82
2023/03/07 03:13:03;;;;;;;20.88;10.30;;;;;;;2.33;78.50;96767.31;5035636;28;20122;-82
2023/03/07 03:15:29;;;;;;;24.55;11.70;;;;;;;2.28;78.83;96767.88;5037440;28;20030;-82
2023/03/07 03:17:55;;;;;;;21.13;11.95;;;;;;;2.21;79.58;96781.69;5036633;28;20090;-82
2023/03/07 03:20:20;;;;;;;20.83;10.32;;;;;;;2.23;79.87;96767.59;5040904;28;20683;-82
2023/03/07 03:22:46;;;;;;;16.48;9.00;;;;;;;2.14;80.43;96758.31;5042384;28;20056;-82
2023/03/07 03:25:13;;;;;;;18.80;9.85;;;;;;;2.20;81.04;96761.97;5040415;28;20036;-81
2023/03/07 03:27:40;;;;;;;20.20;10.15;;;;;;;2.22;81.52;96766.00;5041492;28;20505;-82
2023/03/07 03:30:09;;;;;;;16.25;10.13;;;;;;;2.13;82.03;96757.50;5040215;28;20030;-82
2023/03/07 03:32:39;;;;;;;19.55;9.88;;;;;;;2.16;82.94;96761.53;5035910;28;20037;-82
2023/03/07 03:35:06;;;;;;;17.92;8.40;;;;;;;2.10;83.34;96765.66;5039677;28;20119;-82
2023/03/07 03:37:33;;;;;;;17.92;9.10;;;;;;;2.09;83.96;96761.44;5038383;28;20037;-82
2023/03/07 03:39:58;;;;;;;18.60;8.55;;;;;;;2.16;84.19;96753.78;5037229;28;20045;-82
2023/03/07 03:42:24;;;;;;;18.75;9.93;;;;;;;2.10;84.47;96754.50;5041117;28;20504;-82
2023/03/07 03:44:49;;;;;;;21.33;10.77;;;;;;;2.01;85.25;96747.78;5038391;28;20037;-82
2023/03/07 03:47:15;;;;;;;18.55;9.98;;;;;;;2.04;85.57;96742.25;5036380;28;20508;-81
2023/03/07 03:49:41;;;;;;;18.40;9.65;;;;;;;2.17;86.09;96742.44;5039620;28;20045;-82
2023/03/07 03:52:06;;;;;;;18.92;9.93;;;;;;;2.26;85.43;96731.00;5038291;28;20033;-82
2023/03/07 03:54:32;;;;;;;18.75;8.70;;;;;;;2.33;85.16;96742.22;5036816;28;20040;-82
2023/03/07 03:56:57;;;;;;;18.40;9.80;;;;;;;2.47;85.50;96739.81;5036095;28;20111;-82
2023/03/07 03:59:23;;;;;;;21.13;10.48;;;;;;;2.40;85.17;96734.56;5037699;28;20085;-82
2023/03/07 04:01:49;;;;;;;18.02;9.45;;;;;;;2.44;84.95;96722.84;5026534;28;20029;-81
2023/03/07 04:04:14;;;;;;;19.30;9.88;;;;;;;2.56;84.85;96725.78;5036840;28;20033;-82
2023/03/07 04:06:41;;;;;;;21.05;9.48;;;;;;;2.58;84.69;96722.03;5022305;28;20123;-82
2023/03/07 04:09:08;;;;;;;17.05;9.35;;;;;;;2.63;84.60;96731.81;5034252;28;20037;-82
2023/03/07 04:11:35;;;;;;;21.05;9.80;;;;;;;2.69;84.16;96718.94;5034584;28;20112;-82
2023/03/07 04:14:02;;;;;;;18.95;9.35;;;;;;;2.70;84.11;96722.38;5039348;28;20053;-82
2023/03/07 04:16:27;;;;;;;18.23;9.65;;;;;;;2.73;83.86;96723.78;5036575;28;20091;-82
2023/03/07 04:18:54;;;;;;;20.98;9.57;;;;;;;2.71;83.70;96716.19;5040134;28;20421;-81
2023/03/07 04:21:21;;;;;;;17.77;9.15;;;;;;;2.80;83.46;96714.28;5037083;28;20532;-82
2023/03/07 04:23:48;;;;;;;19.00;9.32;;;;;;;2.83;83.31;96717.31;5036271;28;20032;-82
2023/03/07 04:26:15;;;;;;;21.83;9.35;;;;;;;2.84;83.06;96712.94;5037558;28;20057;-82
2023/03/07 04:28:48;;;;;;;19.35;9.45;;;;;;;2.92;82.81;96712.81;5035948;28;20044;-81
2023/03/07 04:31:21;;;;;;;20.00;9.85;;;;;;;2.95;82.68;96718.44;5037325;28;20120;-81
2023/03/07 04:33:47;;;;;;;17.98;9.40;;;;;;;2.89;82.17;96710.59;5036639;28;20032;-81
2023/03/07 04:36:18;;;;;;;14.98;8.77;;;;;;;2.84;81.94;96713.75;5036332;28;20041;-82
2023/03/07 04:38:45;;;;;;;12.82;6.80;;;;;;;2.65;82.05;96709.16;5037071;28;20045;-82
2023/03/07 04:41:15;;;;;;;19.10;9.98;;;;;;;2.63;82.79;96716.28;5038250;28;20692;-81
2023/03/07 04:43:40;;;;;;;19.65;9.82;;;;;;;2.67;82.71;96717.53;5037896;28;20033;-81
2023/03/07 04:46:07;;;;;;;16.77;8.48;;;;;;;2.59;82.69;96710.69;5035329;28;20037;-81
2023/03/07 04:48:34;;;;;;;16.83;9.10;;;;;;;2.57;82.67;96709.25;5038389;28;20124;-82
2023/03/07 04:50:59;;;;;;;18.35;9.02;;;;;;;2.65;82.27;96720.31;5037439;28;20153;-82
2023/03/07 04:53:25;;;;;;;16.67;9.38;;;;;;;2.73;82.27;96710.84;5037083;28;20540;-81
2023/03/07 04:56:00;;;;;;;18.70;9.93;;;;;;;2.57;81.88;96693.72;5035350;28;20042;-82
2023/03/07 04:58:30;;;;;;;16.55;8.32;;;;;;;2.55;81.57;96703.47;5035948;28;20037;-82
2023/03/07 05:00:57;;;;;;;19.17;9.27;;;;;;;2.44;81.90;96704.75;5036452;28;20152;-82
2023/03/07 05:03:25;;;;;;;19.50;11.05;;;;;;;2.38;81.72;96713.25;5033784;28;20068;-82
2023/03/07 05:05:51;;;;;;;17.42;8.25;;;;;;;2.38;81.98;96708.06;5034391;28;20037;-81
2023/03/07 05:08:17;;;;;;;20.63;12.07;;;;;;;2.33;82.27;96715.56;5034053;28;20040;-81
2023/03/07 05:10:42;;;;;;;18.00;9.07;;;;;;;2.39;82.86;96707.88;5033652;28;20477;-82
2023/03/07 05:13:09;;;;;;;8.13;6.35;;;;;;;2.29;82.60;96704.00;5036227;28;20056;-82
2023/03/07 05:15:34;;;;;;;19.13;9.88;;;;;;;2.35;83.20;96704.06;5004592;28;20029;-82
2023/03/07 05:18:00;;;;;;;18.30;9.02;;;;;;;2.38;83.33;96703.69;5040329;28;20041;-82
2023/03/07 05:20:28;;;;;;;18.88;9.48;;;;;;;2.32;83.54;96704.41;5037506;28;20079;-82
2023/03/07 05:22:55;;;;;;;18.40;9.20;;;;;;;2.25;83.71;96700.94;5043791;28;20040;-82
2023/03/07 05:25:21;;;;;;;18.33;9.73;;;;;;;2.27;83.54;96701.56;5043477;28;20496;-81
2023/03/07 05:27:47;;;;;;;14.63;8.65;;;;;;;2.20;83.50;96705.84;5042841;28;20048;-81
2023/03/07 05:30:14;;;;;;;16.25;8.32;;;;;;;2.26;83.85;96707.72;5043719;28;20473;-82
2023/03/07 05:32:39;;;;;;;18.55;9.65;;;;;;;2.23;83.68;96700.34;5040002;28;20037;-81
2023/03/07 05:35:08;;;;;;;17.30;9.48;;;;;;;2.27;83.74;96690.41;5041930;28;20055;-82
2023/03/07 05:37:34;;;;;;;17.15;9.48;;;;;;;2.24;83.71;96685.63;5034461;28;20034;-82
2023/03/07 05:39:59;;;;;;;19.25;9.57;;;;;;;2.25;83.81;96692.38;5040009;28;20523;-82
2023/03/07 05:42:25;;;;;;;12.40;6.95;;;;;;;2.17;83.43;96680.38;5040552;28;20039;-81
2023/03/07 05:44:50;;;;;;;16.50;8.10;;;;;;;2.25;83.46;96688.00;5040976;28;20049;-82
2023/03/07 05:47:16;;;;;;;15.52;8.52;;;;;;;2.28;83.12;96686.84;5036392;28;20060;-81
2023/03/07 05:49:41;;;;;;;19.00;8.18;;;;;;;2.25;82.95;96677.66;5040289;28;20037;-82
2023/03/07 05:52:07;;;;;;;16.50;7.88;;;;;;;2.35;82.93;96688.53;5039730;28;20036;-82
2023/03/07 05:54:32;;;;;;;13.18;7.78;;;;;;;2.33;82.21;96690.50;5039856;28;20033;-83
2023/03/07 05:56:57;;;;;;;18.67;10.32;;;;;;;2.29;82.46;96684.09;5039500;28;20041;-81
2023/03/07 05:59:26;;;;;;;17.17;9.13;;;;;;;2.31;82.38;96676.94;5038891;28;20111;-81
2023/03/07 06:01:51;;;;;;;15.23;7.93;;;;;;;2.41;82.31;96677.47;5038054;28;20033;-82
2023/03/07 06:04:17;;;;;;;17.25;9.02;;;;;;;2.43;82.12;96685.03;5037396;28;20029;-81
2023/03/07 06:06:42;;;;;;;16.52;8.52;;;;;;;2.45;81.92;96682.25;5037698;28;20481;-81
2023/03/07 06:09:08;;;;;;;16.63;8.45;;;;;;;2.50;81.89;96674.75;5036089;28;20102;-81
2023/03/07 06:11:33;;;;;;;18.27;9.15;;;;;;;2.63;81.71;96686.03;5037766;28;20089;-82
2023/03/07 06:13:59;;;;;;;16.92;8.43;;;;;;;2.65;81.47;96684.09;5036352;28;20080;-82
2023/03/07 06:16:24;;;;;;;16.98;8.82;;;;;;;2.63;81.15;96682.66;5042200;28;20057;-81
2023/03/07 06:18:50;;;;;;;16.15;8.43;;;;;;;2.66;80.68;96679.69;5042288;28;20044;-81
2023/03/07 06:21:17;;;;;;;17.17;8.52;;;;;;;2.68;80.73;96690.66;5041926;28;20408;-82
2023/03/07 06:23:43;;;;;;;15.80;7.82;;;;;;;2.62;80.48;96675.88;5042983;28;20094;-82
2023/03/07 06:26:09;;;;;;;17.30;7.78;;;;;;;2.71;81.17;96686.91;5041770;28;20033;-82
2023/03/07 06:28:35;;;;;;;17.35;8.95;;;;;;;2.72;80.81;96689.31;5041666;28;20041;-82
2023/03/07 06:31:08;;;;;;;16.63;9.68;;;;;;;2.63;80.42;96672.28;5040149;28;20950;-81
2023/03/07 06:33:33;;;;;;;18.40;8.52;;;;;;;2.75;80.89;96690.72;5040058;28;20111;-82
2023/03/07 06:36:03;;;;;;;20.38;9.68;;;;;;;2.74;80.49;96692.53;5040959;28;20033;-82
2023/03/07 06:38:29;;;;;;;15.30;8.88;;;;;;;2.70;80.44;96701.66;5040139;28;20465;-82
2023/03/07 06:40:55;;;;;;;13.95;7.95;;;;;;;2.72;80.67;96697.09;5040219;28;20044;-81
2023/03/07 06:43:21;;;;;;;18.17;9.07;;;;;;;2.77;81.16;96673.25;5038792;28;20029;-82
2023/03/07 06:45:46;;;;;;;19.13;12.18;;;;;;;2.76;80.48;96690.56;5035559;28;20029;-82
2023/03/07 06:48:12;;;;;;;17.58;9.68;;;;;;;2.77;80.99;96686.19;5039042;28;20032;-82
2023/03/07 06:50:37;;;;;;;13.80;7.45;;;;;;;2.82;80.96;96678.63;5038551;28;20075;-81
2023/03/07 06:53:06;;;;;;;13.23;7.82;;;;;;;2.85;80.93;96683.47;5036126;28;20037;-82
2023/03/07 06:55:31;;;;;;;25.75;13.02;;;;;;;2.89;80.91;96674.34;5037239;28;20044;-82
2023/03/07 06:57:57;;;;;;;17.23;9.45;;;;;;;2.98;80.25;96685.38;5038218;28;20116;-82
2023/03/07 07:00:22;;;;;;;21.67;10.75;;;;;;;3.12;80.61;96674.13;5037251;28;20032;-82
2023/03/07 07:02:48;;;;;;;19.83;9.65;;;;;;;3.06;79.95;96672.28;5035698;28;20084;-82
2023/03/07 07:05:14;;;;;;;12.15;6.60;;;;;;;3.07;80.04;96676.50;5034849;28;20044;-82
2023/03/07 07:07:39;;;;;;;17.60;9.68;;;;;;;3.26;80.05;96668.06;5029135;28;20665;-82
2023/03/07 07:10:05;;;;;;;15.73;9.73;;;;;;;3.29;79.39;96675.44;5033380;28;20036;-82
2023/03/07 07:12:30;;;;;;;19.25;9.73;;;;;;;3.39;79.32;96670.75;5038924;28;20034;-81
2023/03/07 07:14:56;;;;;;;15.82;8.43;;;;;;;3.40;78.43;96669.75;5041255;28;20193;-82
2023/03/07 07:17:22;;;;;;;15.57;9.75;;;;;;;3.35;77.83;96668.72;5038108;28;20091;-82
2023/03/07 07:19:47;;;;;;;20.10;10.02;;;;;;;3.35;77.88;96671.31;5036770;28;20029;-82
2023/03/07 07:22:16;;;;;;;21.65;10.23;;;;;;;3.32;77.61;96675.09;5040254;28;20048;-82
2023/03/07 07:24:42;;;;;;;15.48;8.52;;;;;;;3.36;76.99;96662.53;5039182;28;20036;-82
2023/03/07 07:27:08;;;;;;;20.08;12.20;;;;;;;3.29;77.27;96664.28;5039806;28;20484;-82
2023/03/07 07:29:33;;;;;;;17.48;8.52;;;;;;;3.43;77.75;96669.41;5021655;28;20044;-82
2023/03/07 07:31:59;;;;;;;17.25;9.35;;;;;;;3.51;77.18;96659.88;5036244;28;20033;-82
2023/03/07 07:34:24;;;;;;;16.13;8.25;;;;;;;3.52;76.85;96666.66;5037621;28;20056;-82
2023/03/07 07:36:51;;;;;;;19.20;9.90;;;;;;;3.70;76.83;96656.59;5036653;28;20025;-82
2023/03/07 07:39:18;;;;;;;14.18;7.65;;;;;;;3.74;76.01;96673.38;5034773;28;20040;-82
2023/03/07 07:41:45;;;;;;;18.45;8.75;;;;;;;3.86;75.74;96665.84;5036479;28;20068;-82
2023/03/07 07:44:10;;;;;;;16.20;8.95;;;;;;;3.80;75.42;96657.03;5067533;28;20033;-82
2023/03/07 07:46:36;;;;;;;13.20;6.38;;;;;;;3.75;75.07;96664.59;5035166;28;20377;-82
2023/03/07 07:49:02;;;;;;;14.43;8.63;;;;;;;3.70;74.39;96665.16;5036677;28;20040;-82
2023/03/07 07:51:28;;;;;;;13.98;7.18;;;;;;;3.63;74.97;96655.75;5034935;28;20128;-82
2023/03/07 07:53:53;;;;;;;12.88;6.40;;;;;;;3.65;74.42;96670.09;5035439;28;20108;-83
2023/03/07 07:56:19;;;;;;;14.60;7.93;;;;;;;3.68;75.07;96679.31;5034291;28;20033;-82
2023/03/07 07:58:45;;;;;;;15.13;10.07;;;;;;;3.61;74.31;96670.72;5035965;28;20044;-83
2023/03/07 08:01:22;;;;;;;17.73;9.05;;;;;;;3.80;75.04;96667.41;5035815;28;20175;-82
2023/03/07 08:03:48;;;;;;;16.90;8.00;;;;;;;3.87;73.84;96668.25;5033239;28;20090;-83
2023/03/07 08:06:26;;;;;;;19.65;8.73;;;;;;;4.00;74.07;96668.31;5021440;28;20741;-82
2023/03/07 08:08:53;;;;;;;13.15;7.65;;;;;;;3.97;72.79;96670.50;5031554;28;20067;-82
2023/03/07 08:11:21;;;;;;;12.45;8.50;;;;;;;3.87;72.20;96672.63;5036444;28;20044;-82
2023/03/07 08:13:46;;;;;;;14.18;7.55;;;;;;;3.97;73.13;96668.72;5037180;28;20474;-82
2023/03/07 08:16:16;;;;;;;16.90;7.95;;;;;;;3.97;72.80;96668.72;5038331;28;20041;-82
2023/03/07 08:18:48;;;;;;;16.48;8.68;;;;;;;4.03;72.37;96661.94;5039853;28;20049;-82
2023/03/07 08:21:13;;;;;;;13.38;7.68;;;;;;;4.11;72.04;96658.38;5033960;28;20029;-82
2023/03/07 08:23:39;;;;;;;20.15;8.23;;;;;;;4.14;71.51;96658.81;5027187;28;20033;-83
2023/03/07 08:26:08;;;;;;;13.55;7.47;;;;;;;4.28;71.66;96657.84;5036027;28;20040;-82
2023/03/07 08:28:36;;;;;;;13.45;7.43;;;;;;;4.29;70.96;96645.66;5065263;28;20468;-82
2023/03/07 08:31:15;;;;;;;12.70;7.90;;;;;;;4.40;70.77;96657.28;5036604;28;20038;-82
2023/03/07 08:33:40;;;;;;;9.35;5.72;;;;;;;4.36;69.79;96656.06;5035358;28;20056;-81
2023/03/07 08:36:06;;;;;;;15.35;8.73;;;;;;;4.36;69.44;96656.88;5035580;28;20557;-82
2023/03/07 08:38:33;;;;;;;13.82;8.77;;;;;;;4.27;69.27;96664.03;5035193;28;20041;-82
2023/03/07 08:41:04;;;;;;;10.30;7.45;;;;;;;4.24;69.42;96658.41;5032802;28;20087;-82
2023/03/07 08:43:31;;;;;;;;;;;;;;;4.40;69.14;96660.69;5035435;28;20366;-82
2023/03/07 08:45:58;;;;;;;15.00;7.50;;;;;;;4.47;68.80;96656.31;5035963;28;19920;-82
2023/03/07 08:48:24;;;;;;;11.90;6.85;;;;;;;4.51;68.31;96641.94;5035134;28;20037;-82
2023/03/07 08:50:50;;;;;;;9.15;5.53;;;;;;;4.53;68.16;96645.13;5032798;28;20037;-81
2023/03/07 08:53:16;;;;;;;11.90;7.07;;;;;;;4.60;68.41;96657.31;5034852;28;20365;-81
2023/03/07 08:55:44;;;;;;;12.23;8.43;;;;;;;4.44;68.05;96648.13;5033213;28;20045;-82
2023/03/07 08:58:10;;;;;;;12.02;7.88;;;;;;;4.44;68.13;96648.91;5037852;28;20036;-82
2023/03/07 09:00:37;;;;;;;11.95;6.53;;;;;;;4.53;67.89;96649.53;5037808;28;20040;-81
2023/03/07 09:03:04;;;;;;;11.75;6.35;;;;;;;4.64;67.26;96640.38;5037103;28;20049;-82
2023/03/07 09:05:31;;;;;;;15.05;7.68;;;;;;;4.74;67.09;96657.16;5037580;28;20033;-82
2023/03/07 09:07:57;;;;;;;10.43;8.15;;;;;;;4.65;66.91;96641.97;5039791;28;20063;-82
2023/03/07 09:10:23;;;;;;;12.02;7.57;;;;;;;4.70;66.67;96640.38;5038319;28;20628;-82
2023/03/07 09:12:51;;;;;;;11.85;6.55;;;;;;;4.89;67.01;96630.19;5031960;28;20053;-81
2023/03/07 09:15:18;;;;;;;10.30;7.75;;;;;;;4.91;66.26;96636.78;5041671;28;20037;-82
2023/03/07 09:17:43;;;;;;;10.48;6.18;;;;;;;5.10;66.07;96641.22;5042450;28;20045;-81
2023/03/07 09:20:10;;;;;;;13.15;9.32;;;;;;;5.03;65.06;96632.59;5040177;28;20041;-82
2023/03/07 09:22:36;;;;;;;11.52;5.75;;;;;;;5.09;64.68;96626.59;5038031;28;20041;-82
2023/03/07 09:25:03;;;;;;;10.98;7.15;;;;;;;5.18;64.87;96623.81;5039247;28;20032;-82
2023/03/07 09:27:28;;;;;;;13.32;9.25;;;;;;;5.21;64.59;96618.97;5039496;28;20037;-81
2023/03/07 09:29:54;;;;;;;8.90;5.78;;;;;;;5.40;64.55;96620.00;5038728;28;20033;-81
2023/03/07 09:32:20;;;;;;;11.77;7.88;;;;;;;5.36;63.46;96637.00;5040103;28;20033;-82
2023/03/07 09:34:45;;;;;;;17.35;8.45;;;;;;;5.46;63.84;96621.78;5039393;28;20041;-82
2023/03/07 09:37:11;;;;;;;13.38;9.30;;;;;;;5.42;62.35;96602.38;5039321;28;20468;-81
2023/03/07 09:39:37;;;;;;;11.25;7.38;;;;;;;5.46;63.28;96613.97;5038540;28;20510;-82
2023/03/07 09:42:26;;;;;;;10.60;5.82;;;;;;;5.41;62.53;96623.38;5039598;28;20037;-82
2023/03/07 09:45:30;;;;;;;12.20;7.53;;;;;;;5.34;62.75;96621.59;5032826;28;20060;-82
2023/03/07 09:48:23;;;;;;;15.63;9.25;;;;;;;5.39;62.09;96605.38;5037212;28;20043;-82
2023/03/07 09:50:56;;;;;;;10.90;7.75;;;;;;;5.33;61.86;96606.19;5036143;28;20026;-81
2023/03/07 09:53:41;;;;;;;10.30;5.88;;;;;;;5.55;62.92;96594.53;5038727;28;20044;-81
2023/03/07 09:56:18;;;;;;;9.35;5.22;;;;;;;5.76;62.49;96574.47;5037698;28;20099;-82
2023/03/07 09:58:53;;;;;;;9.82;5.53;;;;;;;5.60;61.21;96586.94;5037296;28;20547;-82
2023/03/07 10:01:28;;;;;;;14.27;9.10;;;;;;;5.71;60.97;96587.31;5035413;28;20033;-82
2023/03/07 10:04:05;;;;;;;18.77;8.73;;;;;;;5.64;60.72;96593.31;5035585;28;20125;-82
2023/03/07 10:06:40;;;;;;;8.80;5.63;;;;;;;5.69;60.61;96574.47;5037641;28;20061;-82
2023/03/07 10:09:17;;;;;;;13.02;7.43;;;;;;;5.82;60.54;96578.88;5043468;28;20032;-82
2023/03/07 10:11:59;;;;;;;13.45;7.85;;;;;;;5.89;60.04;96580.44;5038507;28;20037;-82
2023/03/07 10:14:40;;;;;;;10.15;6.90;;;;;;;5.89;59.45;96569.22;5041197;28;20045;-82
2023/03/07 10:17:19;;;;;;;10.98;7.57;;;;;;;5.83;58.89;96585.66;5040434;28;20037;-82
2023/03/07 10:19:55;;;;;;;12.45;6.60;;;;;;;5.81;58.58;96605.84;5041173;28;20527;-82
2023/03/07 10:23:04;;;;;;;9.90;7.30;;;;;;;5.65;58.41;96575.91;5036969;28;20498;-82
2023/03/07 10:25:52;;;;;;;10.30;6.68;;;;;;;5.62;58.57;96564.09;5021689;28;20080;-82
2023/03/07 10:28:29;;;;;;;12.75;7.75;;;;;;;5.87;59.29;96566.00;5041147;28;20075;-82
2023/03/07 10:31:10;;;;;;;10.75;7.10;;;;;;;5.95;57.98;96558.00;5040147;28;20104;-82
2023/03/07 10:33:41;;;;;;;12.15;8.18;;;;;;;5.94;57.31;96556.41;5037516;28;20030;-81
2023/03/07 10:36:34;;;;;;;10.13;6.82;;;;;;;6.13;56.91;96554.72;5039354;28;20025;-81
2023/03/07 10:39:13;;;;;;;11.68;6.53;;;;;;;6.15;57.83;96548.28;5038827;28;20052;-81
2023/03/07 10:41:39;;;;;;;10.13;5.97;;;;;;;6.30;57.07;96550.63;5038469;28;20045;-82
2023/03/07 10:44:09;;;;;;;11.85;8.07;;;;;;;6.25;56.62;96552.25;5039300;28;20083;-83
2023/03/07 10:46:36;;;;;;;11.18;6.97;;;;;;;6.38;57.02;96532.13;5037785;28;20527;-81
2023/03/07 10:49:16;;;;;;;8.80;7.10;;;;;;;6.33;55.62;96541.56;5039327;28;20477;-82
2023/03/07 10:52:19;;;;;;;8.13;5.63;;;;;;;6.31;55.42;96520.16;5037746;28;20127;-82
2023/03/07 10:54:45;;;;;;;6.93;4.43;;;;;;;6.30;55.29;96545.41;5038215;28;20037;-82
2023/03/07 10:57:26;;;;;;;10.13;6.75;;;;;;;6.21;55.22;96545.84;5036922;28;20064;-82
2023/03/07 10:59:52;;;;;;;14.15;8.32;;;;;;;6.24;55.72;96525.41;5033492;28;20040;-82
2023/03/07 11:02:29;;;;;;;10.85;7.90;;;;;;;6.14;55.31;96525.88;5036702;28;20530;-82
2023/03/07 11:04:56;;;;;;;11.43;6.40;;;;;;;6.22;55.43;96518.81;5037647;28;20083;-81
2023/03/07 11:07:40;;;;;;;10.88;5.95;;;;;;;6.38;55.24;96518.31;5042695;28;20136;-82
2023/03/07 11:10:31;;;;;;;12.30;7.97;;;;;;;6.34;53.97;96533.53;5039782;28;20068;-81
2023/03/07 11:12:57;;;;;;;8.57;6.25;;;;;;;6.32;53.75;96542.59;5023895;28;20068;-82
2023/03/07 11:15:24;;;;;;;7.38;4.65;;;;;;;6.39;52.09;96520.69;5040621;28;20036;-82
2023/03/07 11:17:51;;;;;;;9.27;4.68;;;;;;;6.72;52.25;96509.25;5038850;28;20050;-82
2023/03/07 11:20:47;;;;;;;8.55;4.90;;;;;;;6.85;52.34;96490.88;5038287;28;20136;-81
2023/03/07 11:23:24;;;;;;;8.18;6.15;;;;;;;6.69;51.04;96504.44;5035150;28;20110;-82
2023/03/07 11:25:56;;;;;;;10.45;7.80;;;;;;;6.55;51.17;96511.56;5039253;28;20055;-81
2023/03/07 11:28:24;;;;;;;6.05;4.55;;;;;;;6.71;51.61;96484.97;5038480;28;20045;-82
2023/03/07 11:31:18;;;;;;;8.77;5.32;;;;;;;6.77;51.51;96503.38;5035496;28;20041;-81
2023/03/07 11:33:56;;;;;;;8.52;5.78;;;;;;;6.69;51.57;96481.00;5038123;28;20045;-82
2023/03/07 11:36:33;;;;;;;8.27;5.15;;;;;;;6.85;51.26;96484.88;5037495;28;20043;-81
2023/03/07 11:39:36;;;;;;;8.02;6.05;;;;;;;6.89;50.27;96491.22;5037831;28;20061;-82
2023/03/07 11:42:15;;;;;;;9.25;6.82;;;;;;;6.67;50.00;96502.06;5038084;28;20091;-82
2023/03/07 11:44:53;;;;;;;7.10;5.18;;;;;;;6.66;50.21;96476.22;5034931;28;20122;-82